sensor_id;sensor_type;location;lat;lon;timestamp;P1;durP1;ratioP1;P2;durP2;ratioP2
68377;SDS011;55322;48.146;11.516;2022-08-01T00:00:18;5.10;;;1.80;;
68377;SDS011;55322;48.146;11.516;2022-08-01T00:02:44;5.30;;;1.90;;
68377;SDS011;55322;48.146;11.516;2022-08-01T00:05:09;4.80;;;1.83;;
68377;SDS011;55322;48.146;11.516;2022-08-01T00:07:36;6.60;;;1.80;;
68377;SDS011;55322;48.146;11.516;2022-08-01T00:10:04;6.03;;;2.00;;
68377;SDS011;55322;48.146;11.516;2022-08-01T00:12:32;5.15;;;1.88;;
68377;SDS011;55322;48.146;11.516;2022-08-01T00:14:57;5.00;;;1.90;;
68377;SDS011;55322;48.146;11.516;2022-08-01T00:17:22;6.23;;;1.90;;
68377;SDS011;55322;48.146;11.516;2022-08-01T00:19:48;5.33;;;2.00;;
68377;SDS011;55322;48.146;11.516;2022-08-01T00:22:13;4.75;;;1.83;;
68377;SDS011;55322;48.146;11.516;2022-08-01T00:24:38;4.70;;;1.80;;
68377;SDS011;55322;48.146;11.516;2022-08-01T00:27:04;6.17;;;1.93;;
68377;SDS011;55322;48.146;11.516;2022-08-01T00:29:29;6.50;;;2.10;;
68377;SDS011;55322;48.146;11.516;2022-08-01T00:31:54;5.17;;;2.10;;
68377;SDS011;55322;48.146;11.516;2022-08-01T00:34:20;5.13;;;1.87;;
68377;SDS011;55322;48.146;11.516;2022-08-01T00:36:45;6.47;;;2.10;;
68377;SDS011;55322;48.146;11.516;2022-08-01T00:39:11;5.45;;;1.75;;
68377;SDS011;55322;48.146;11.516;2022-08-01T00:41:36;8.37;;;2.20;;
68377;SDS011;55322;48.146;11.516;2022-08-01T00:44:03;5.60;;;1.90;;
68377;SDS011;55322;48.146;11.516;2022-08-01T00:46:29;7.03;;;2.13;;
68377;SDS011;55322;48.146;11.516;2022-08-01T00:48:55;6.43;;;2.00;;
68377;SDS011;55322;48.146;11.516;2022-08-01T00:51:20;6.13;;;2.15;;
68377;SDS011;55322;48.146;11.516;2022-08-01T00:53:47;6.27;;;2.10;;
68377;SDS011;55322;48.146;11.516;2022-08-01T00:56:12;8.32;;;2.20;;
68377;SDS011;55322;48.146;11.516;2022-08-01T00:58:38;5.93;;;2.00;;
68377;SDS011;55322;48.146;11.516;2022-08-01T01:01:04;4.90;;;1.93;;
68377;SDS011;55322;48.146;11.516;2022-08-01T01:03:29;5.43;;;2.17;;
68377;SDS011;55322;48.146;11.516;2022-08-01T01:06:01;5.47;;;1.97;;
68377;SDS011;55322;48.146;11.516;2022-08-01T01:08:42;5.78;;;2.08;;
68377;SDS011;55322;48.146;11.516;2022-08-01T01:11:13;5.45;;;2.10;;
68377;SDS011;55322;48.146;11.516;2022-08-01T01:13:46;4.80;;;1.80;;
68377;SDS011;55322;48.146;11.516;2022-08-01T01:16:17;5.07;;;1.80;;
68377;SDS011;55322;48.146;11.516;2022-08-01T01:18:55;6.05;;;2.20;;
68377;SDS011;55322;48.146;11.516;2022-08-01T01:24:21;6.00;;;2.08;;
68377;SDS011;55322;48.146;11.516;2022-08-01T01:27:05;6.53;;;2.13;;
68377;SDS011;55322;48.146;11.516;2022-08-01T01:29:42;5.20;;;1.93;;
68377;SDS011;55322;48.146;11.516;2022-08-01T01:32:15;5.40;;;2.08;;
68377;SDS011;55322;48.146;11.516;2022-08-01T01:34:48;6.05;;;1.90;;
68377;SDS011;55322;48.146;11.516;2022-08-01T01:37:17;6.75;;;2.15;;
68377;SDS011;55322;48.146;11.516;2022-08-01T01:39:46;5.55;;;2.10;;
68377;SDS011;55322;48.146;11.516;2022-08-01T01:42:14;5.73;;;1.90;;
68377;SDS011;55322;48.146;11.516;2022-08-01T01:44:42;6.22;;;2.00;;
68377;SDS011;55322;48.146;11.516;2022-08-01T01:47:09;5.22;;;2.10;;
68377;SDS011;55322;48.146;11.516;2022-08-01T01:49:37;6.30;;;1.90;;
68377;SDS011;55322;48.146;11.516;2022-08-01T01:52:04;6.85;;;2.20;;
68377;SDS011;55322;48.146;11.516;2022-08-01T01:54:33;5.70;;;2.10;;
68377;SDS011;55322;48.146;11.516;2022-08-01T01:57:09;5.55;;;1.90;;
68377;SDS011;55322;48.146;11.516;2022-08-01T01:59:37;6.38;;;2.20;;
68377;SDS011;55322;48.146;11.516;2022-08-01T02:02:04;5.45;;;2.00;;
68377;SDS011;55322;48.146;11.516;2022-08-01T02:04:31;5.70;;;2.10;;
68377;SDS011;55322;48.146;11.516;2022-08-01T02:06:58;5.03;;;2.03;;
68377;SDS011;55322;48.146;11.516;2022-08-01T02:09:24;5.57;;;1.92;;
68377;SDS011;55322;48.146;11.516;2022-08-01T02:11:52;5.30;;;2.05;;
68377;SDS011;55322;48.146;11.516;2022-08-01T02:14:18;5.00;;;2.00;;
68377;SDS011;55322;48.146;11.516;2022-08-01T02:16:47;6.55;;;1.88;;
68377;SDS011;55322;48.146;11.516;2022-08-01T02:19:14;6.43;;;1.73;;
68377;SDS011;55322;48.146;11.516;2022-08-01T02:21:49;6.65;;;1.90;;
68377;SDS011;55322;48.146;11.516;2022-08-01T02:24:31;5.78;;;2.10;;
68377;SDS011;55322;48.146;11.516;2022-08-01T02:27:06;5.63;;;1.90;;
68377;SDS011;55322;48.146;11.516;2022-08-01T02:29:45;5.00;;;2.03;;
68377;SDS011;55322;48.146;11.516;2022-08-01T02:32:20;7.93;;;1.90;;
68377;SDS011;55322;48.146;11.516;2022-08-01T02:34:50;4.93;;;1.92;;
68377;SDS011;55322;48.146;11.516;2022-08-01T02:37:17;6.60;;;2.13;;
68377;SDS011;55322;48.146;11.516;2022-08-01T02:39:43;8.30;;;2.60;;
68377;SDS011;55322;48.146;11.516;2022-08-01T02:42:12;5.15;;;2.00;;
68377;SDS011;55322;48.146;11.516;2022-08-01T02:44:41;5.15;;;1.90;;
68377;SDS011;55322;48.146;11.516;2022-08-01T02:47:08;5.32;;;2.00;;
68377;SDS011;55322;48.146;11.516;2022-08-01T02:49:35;7.70;;;2.28;;
68377;SDS011;55322;48.146;11.516;2022-08-01T02:52:07;6.40;;;1.70;;
68377;SDS011;55322;48.146;11.516;2022-08-01T02:54:34;5.78;;;2.00;;
68377;SDS011;55322;48.146;11.516;2022-08-01T02:57:01;5.30;;;2.20;;
68377;SDS011;55322;48.146;11.516;2022-08-01T02:59:28;5.55;;;1.85;;
68377;SDS011;55322;48.146;11.516;2022-08-01T03:01:55;5.28;;;1.90;;
68377;SDS011;55322;48.146;11.516;2022-08-01T03:04:21;5.47;;;2.10;;
68377;SDS011;55322;48.146;11.516;2022-08-01T03:06:49;5.22;;;1.95;;
68377;SDS011;55322;48.146;11.516;2022-08-01T03:09:16;5.00;;;1.98;;
68377;SDS011;55322;48.146;11.516;2022-08-01T03:11:44;5.53;;;2.13;;
68377;SDS011;55322;48.146;11.516;2022-08-01T03:14:11;4.90;;;1.80;;
68377;SDS011;55322;48.146;11.516;2022-08-01T03:16:38;5.90;;;2.13;;
68377;SDS011;55322;48.146;11.516;2022-08-01T03:19:04;8.15;;;2.00;;
68377;SDS011;55322;48.146;11.516;2022-08-01T03:21:33;5.05;;;2.00;;
68377;SDS011;55322;48.146;11.516;2022-08-01T03:24:00;6.20;;;2.20;;
68377;SDS011;55322;48.146;11.516;2022-08-01T03:26:27;4.90;;;1.80;;
68377;SDS011;55322;48.146;11.516;2022-08-01T03:28:59;5.80;;;2.17;;
68377;SDS011;55322;48.146;11.516;2022-08-01T03:31:31;6.38;;;1.90;;
68377;SDS011;55322;48.146;11.516;2022-08-01T03:33:58;6.50;;;2.00;;
68377;SDS011;55322;48.146;11.516;2022-08-01T03:36:25;5.97;;;2.10;;
68377;SDS011;55322;48.146;11.516;2022-08-01T03:38:55;6.07;;;1.70;;
68377;SDS011;55322;48.146;11.516;2022-08-01T03:41:24;6.03;;;1.90;;
68377;SDS011;55322;48.146;11.516;2022-08-01T03:44:07;5.35;;;2.03;;
68377;SDS011;55322;48.146;11.516;2022-08-01T03:46:58;7.00;;;1.90;;
68377;SDS011;55322;48.146;11.516;2022-08-01T03:49:27;6.22;;;2.00;;
68377;SDS011;55322;48.146;11.516;2022-08-01T03:51:55;6.15;;;2.25;;
68377;SDS011;55322;48.146;11.516;2022-08-01T03:54:23;7.10;;;2.10;;
68377;SDS011;55322;48.146;11.516;2022-08-01T03:56:51;5.95;;;2.00;;
68377;SDS011;55322;48.146;11.516;2022-08-01T03:59:17;5.00;;;2.13;;
68377;SDS011;55322;48.146;11.516;2022-08-01T04:01:44;6.45;;;2.20;;
68377;SDS011;55322;48.146;11.516;2022-08-01T04:04:11;6.60;;;2.08;;
68377;SDS011;55322;48.146;11.516;2022-08-01T04:06:41;6.53;;;2.22;;
68377;SDS011;55322;48.146;11.516;2022-08-01T04:09:08;6.05;;;2.10;;
68377;SDS011;55322;48.146;11.516;2022-08-01T04:11:34;6.13;;;2.20;;
68377;SDS011;55322;48.146;11.516;2022-08-01T04:14:00;5.97;;;2.20;;
68377;SDS011;55322;48.146;11.516;2022-08-01T04:16:25;7.03;;;2.20;;
68377;SDS011;55322;48.146;11.516;2022-08-01T04:18:51;5.20;;;1.93;;
68377;SDS011;55322;48.146;11.516;2022-08-01T04:21:24;5.25;;;1.95;;
68377;SDS011;55322;48.146;11.516;2022-08-01T04:23:52;6.67;;;1.90;;
68377;SDS011;55322;48.146;11.516;2022-08-01T04:26:20;5.25;;;2.13;;
68377;SDS011;55322;48.146;11.516;2022-08-01T04:28:46;6.30;;;2.50;;
68377;SDS011;55322;48.146;11.516;2022-08-01T04:31:14;5.10;;;1.92;;
68377;SDS011;55322;48.146;11.516;2022-08-01T04:33:42;5.40;;;2.28;;
68377;SDS011;55322;48.146;11.516;2022-08-01T04:36:10;5.77;;;2.10;;
68377;SDS011;55322;48.146;11.516;2022-08-01T04:38:39;5.72;;;2.10;;
68377;SDS011;55322;48.146;11.516;2022-08-01T04:41:07;6.05;;;1.95;;
68377;SDS011;55322;48.146;11.516;2022-08-01T04:43:38;6.20;;;2.10;;
68377;SDS011;55322;48.146;11.516;2022-08-01T04:46:05;5.53;;;2.00;;
68377;SDS011;55322;48.146;11.516;2022-08-01T04:48:32;5.37;;;2.30;;
68377;SDS011;55322;48.146;11.516;2022-08-01T04:50:59;6.22;;;2.03;;
68377;SDS011;55322;48.146;11.516;2022-08-01T04:53:25;5.60;;;2.00;;
68377;SDS011;55322;48.146;11.516;2022-08-01T04:55:51;5.82;;;2.33;;
68377;SDS011;55322;48.146;11.516;2022-08-01T04:58:17;5.83;;;2.20;;
68377;SDS011;55322;48.146;11.516;2022-08-01T05:00:42;5.90;;;2.25;;
68377;SDS011;55322;48.146;11.516;2022-08-01T05:03:08;5.50;;;1.97;;
68377;SDS011;55322;48.146;11.516;2022-08-01T05:05:33;6.73;;;2.07;;
68377;SDS011;55322;48.146;11.516;2022-08-01T05:07:59;7.85;;;2.00;;
68377;SDS011;55322;48.146;11.516;2022-08-01T05:10:25;6.05;;;2.22;;
68377;SDS011;55322;48.146;11.516;2022-08-01T05:12:51;5.30;;;1.93;;
68377;SDS011;55322;48.146;11.516;2022-08-01T05:15:16;4.97;;;1.93;;
68377;SDS011;55322;48.146;11.516;2022-08-01T05:17:42;6.50;;;2.08;;
68377;SDS011;55322;48.146;11.516;2022-08-01T05:20:07;5.33;;;1.80;;
68377;SDS011;55322;48.146;11.516;2022-08-01T05:22:33;5.90;;;2.13;;
68377;SDS011;55322;48.146;11.516;2022-08-01T05:24:59;6.23;;;2.10;;
68377;SDS011;55322;48.146;11.516;2022-08-01T05:27:24;5.63;;;1.97;;
68377;SDS011;55322;48.146;11.516;2022-08-01T05:29:50;6.25;;;2.10;;
68377;SDS011;55322;48.146;11.516;2022-08-01T05:32:15;5.10;;;1.83;;
68377;SDS011;55322;48.146;11.516;2022-08-01T05:34:41;6.63;;;2.23;;
68377;SDS011;55322;48.146;11.516;2022-08-01T05:37:06;5.60;;;2.20;;
68377;SDS011;55322;48.146;11.516;2022-08-01T05:39:32;5.78;;;1.70;;
68377;SDS011;55322;48.146;11.516;2022-08-01T05:41:57;4.73;;;1.90;;
68377;SDS011;55322;48.146;11.516;2022-08-01T05:44:23;6.15;;;2.03;;
68377;SDS011;55322;48.146;11.516;2022-08-01T05:46:48;5.13;;;2.03;;
68377;SDS011;55322;48.146;11.516;2022-08-01T05:49:14;5.83;;;2.20;;
68377;SDS011;55322;48.146;11.516;2022-08-01T05:51:39;5.43;;;1.90;;
68377;SDS011;55322;48.146;11.516;2022-08-01T05:54:05;7.90;;;2.50;;
68377;SDS011;55322;48.146;11.516;2022-08-01T05:56:30;8.50;;;2.40;;
68377;SDS011;55322;48.146;11.516;2022-08-01T05:58:55;5.30;;;1.97;;
68377;SDS011;55322;48.146;11.516;2022-08-01T06:01:21;5.63;;;2.00;;
68377;SDS011;55322;48.146;11.516;2022-08-01T06:03:46;6.47;;;2.20;;
68377;SDS011;55322;48.146;11.516;2022-08-01T06:06:11;6.17;;;2.10;;
68377;SDS011;55322;48.146;11.516;2022-08-01T06:08:38;5.68;;;2.20;;
68377;SDS011;55322;48.146;11.516;2022-08-01T06:11:04;5.50;;;2.10;;
68377;SDS011;55322;48.146;11.516;2022-08-01T06:13:30;6.60;;;2.40;;
68377;SDS011;55322;48.146;11.516;2022-08-01T06:15:55;5.70;;;2.27;;
68377;SDS011;55322;48.146;11.516;2022-08-01T06:18:20;5.93;;;2.33;;
68377;SDS011;55322;48.146;11.516;2022-08-01T06:20:46;5.37;;;2.30;;
68377;SDS011;55322;48.146;11.516;2022-08-01T06:23:11;5.50;;;2.40;;
68377;SDS011;55322;48.146;11.516;2022-08-01T06:25:38;7.07;;;2.40;;
68377;SDS011;55322;48.146;11.516;2022-08-01T06:28:03;5.70;;;2.30;;
68377;SDS011;55322;48.146;11.516;2022-08-01T06:30:29;7.00;;;2.40;;
68377;SDS011;55322;48.146;11.516;2022-08-01T06:32:54;5.80;;;2.70;;
68377;SDS011;55322;48.146;11.516;2022-08-01T06:35:24;8.03;;;2.43;;
68377;SDS011;55322;48.146;11.516;2022-08-01T06:37:50;6.75;;;2.58;;
68377;SDS011;55322;48.146;11.516;2022-08-01T06:40:16;5.67;;;2.40;;
68377;SDS011;55322;48.146;11.516;2022-08-01T06:42:41;5.40;;;2.40;;
68377;SDS011;55322;48.146;11.516;2022-08-01T06:45:07;7.60;;;2.50;;
68377;SDS011;55322;48.146;11.516;2022-08-01T06:47:34;5.38;;;2.50;;
68377;SDS011;55322;48.146;11.516;2022-08-01T06:50:00;7.30;;;3.05;;
68377;SDS011;55322;48.146;11.516;2022-08-01T06:52:27;5.77;;;2.50;;
68377;SDS011;55322;48.146;11.516;2022-08-01T06:54:53;5.47;;;2.25;;
68377;SDS011;55322;48.146;11.516;2022-08-01T06:57:18;6.30;;;2.60;;
68377;SDS011;55322;48.146;11.516;2022-08-01T06:59:44;6.25;;;2.70;;
68377;SDS011;55322;48.146;11.516;2022-08-01T07:02:09;7.43;;;2.27;;
68377;SDS011;55322;48.146;11.516;2022-08-01T07:04:34;5.30;;;2.80;;
68377;SDS011;55322;48.146;11.516;2022-08-01T07:07:00;5.77;;;2.70;;
68377;SDS011;55322;48.146;11.516;2022-08-01T07:09:26;6.05;;;2.42;;
68377;SDS011;55322;48.146;11.516;2022-08-01T07:11:52;6.15;;;2.60;;
68377;SDS011;55322;48.146;11.516;2022-08-01T07:14:19;5.47;;;2.45;;
68377;SDS011;55322;48.146;11.516;2022-08-01T07:16:44;5.77;;;2.63;;
68377;SDS011;55322;48.146;11.516;2022-08-01T07:19:10;5.35;;;2.20;;
68377;SDS011;55322;48.146;11.516;2022-08-01T07:21:36;5.67;;;2.17;;
68377;SDS011;55322;48.146;11.516;2022-08-01T07:24:01;5.60;;;2.28;;
68377;SDS011;55322;48.146;11.516;2022-08-01T07:26:27;5.70;;;2.40;;
68377;SDS011;55322;48.146;11.516;2022-08-01T07:28:52;5.70;;;2.20;;
68377;SDS011;55322;48.146;11.516;2022-08-01T07:31:18;7.05;;;2.05;;
68377;SDS011;55322;48.146;11.516;2022-08-01T07:33:44;6.10;;;2.33;;
68377;SDS011;55322;48.146;11.516;2022-08-01T07:36:09;8.30;;;2.50;;
68377;SDS011;55322;48.146;11.516;2022-08-01T07:38:35;7.30;;;2.40;;
68377;SDS011;55322;48.146;11.516;2022-08-01T07:41:00;5.30;;;2.17;;
68377;SDS011;55322;48.146;11.516;2022-08-01T07:43:25;6.30;;;2.37;;
68377;SDS011;55322;48.146;11.516;2022-08-01T07:45:51;6.47;;;2.60;;
68377;SDS011;55322;48.146;11.516;2022-08-01T07:48:16;6.10;;;2.60;;
68377;SDS011;55322;48.146;11.516;2022-08-01T07:50:41;5.40;;;2.30;;
68377;SDS011;55322;48.146;11.516;2022-08-01T07:53:07;5.45;;;2.45;;
68377;SDS011;55322;48.146;11.516;2022-08-01T07:55:32;6.20;;;2.30;;
68377;SDS011;55322;48.146;11.516;2022-08-01T07:57:57;5.20;;;2.20;;
68377;SDS011;55322;48.146;11.516;2022-08-01T08:00:23;6.10;;;2.50;;
68377;SDS011;55322;48.146;11.516;2022-08-01T08:02:48;7.50;;;2.43;;
68377;SDS011;55322;48.146;11.516;2022-08-01T08:05:14;5.30;;;2.38;;
68377;SDS011;55322;48.146;11.516;2022-08-01T08:07:39;5.80;;;2.33;;
68377;SDS011;55322;48.146;11.516;2022-08-01T08:10:04;6.27;;;2.37;;
68377;SDS011;55322;48.146;11.516;2022-08-01T08:12:30;5.55;;;2.10;;
68377;SDS011;55322;48.146;11.516;2022-08-01T08:14:56;5.37;;;2.20;;
68377;SDS011;55322;48.146;11.516;2022-08-01T08:17:24;5.28;;;2.03;;
68377;SDS011;55322;48.146;11.516;2022-08-01T08:19:50;5.70;;;2.30;;
68377;SDS011;55322;48.146;11.516;2022-08-01T08:22:15;5.57;;;2.30;;
68377;SDS011;55322;48.146;11.516;2022-08-01T08:24:40;6.43;;;2.70;;
68377;SDS011;55322;48.146;11.516;2022-08-01T08:27:05;5.47;;;2.50;;
68377;SDS011;55322;48.146;11.516;2022-08-01T08:29:32;5.40;;;2.40;;
68377;SDS011;55322;48.146;11.516;2022-08-01T08:31:58;5.83;;;2.60;;
68377;SDS011;55322;48.146;11.516;2022-08-01T08:34:25;5.35;;;2.30;;
68377;SDS011;55322;48.146;11.516;2022-08-01T08:36:51;5.63;;;2.30;;
68377;SDS011;55322;48.146;11.516;2022-08-01T08:39:17;7.27;;;2.43;;
68377;SDS011;55322;48.146;11.516;2022-08-01T08:41:43;6.65;;;2.35;;
68377;SDS011;55322;48.146;11.516;2022-08-01T08:44:09;5.23;;;2.30;;
68377;SDS011;55322;48.146;11.516;2022-08-01T08:46:40;5.55;;;2.10;;
68377;SDS011;55322;48.146;11.516;2022-08-01T08:49:06;5.55;;;2.45;;
68377;SDS011;55322;48.146;11.516;2022-08-01T08:51:33;5.57;;;2.22;;
68377;SDS011;55322;48.146;11.516;2022-08-01T08:54:02;6.57;;;2.30;;
68377;SDS011;55322;48.146;11.516;2022-08-01T08:56:28;6.65;;;2.28;;
68377;SDS011;55322;48.146;11.516;2022-08-01T08:58:59;6.10;;;2.17;;
68377;SDS011;55322;48.146;11.516;2022-08-01T09:01:24;6.13;;;2.37;;
68377;SDS011;55322;48.146;11.516;2022-08-01T09:03:50;5.70;;;2.10;;
68377;SDS011;55322;48.146;11.516;2022-08-01T09:06:15;8.90;;;2.40;;
68377;SDS011;55322;48.146;11.516;2022-08-01T09:08:41;6.07;;;2.15;;
68377;SDS011;55322;48.146;11.516;2022-08-01T09:11:06;6.50;;;2.20;;
68377;SDS011;55322;48.146;11.516;2022-08-01T09:13:32;5.43;;;2.33;;
68377;SDS011;55322;48.146;11.516;2022-08-01T09:15:57;5.83;;;2.23;;
68377;SDS011;55322;48.146;11.516;2022-08-01T09:18:35;7.00;;;2.47;;
68377;SDS011;55322;48.146;11.516;2022-08-01T09:21:11;7.55;;;2.35;;
68377;SDS011;55322;48.146;11.516;2022-08-01T09:23:43;5.57;;;2.30;;
68377;SDS011;55322;48.146;11.516;2022-08-01T09:26:17;5.50;;;2.10;;
68377;SDS011;55322;48.146;11.516;2022-08-01T09:28:45;5.30;;;2.00;;
68377;SDS011;55322;48.146;11.516;2022-08-01T09:31:13;4.80;;;1.90;;
68377;SDS011;55322;48.146;11.516;2022-08-01T09:33:46;6.90;;;2.15;;
68377;SDS011;55322;48.146;11.516;2022-08-01T09:36:17;5.05;;;1.90;;
68377;SDS011;55322;48.146;11.516;2022-08-01T09:38:44;5.55;;;2.20;;
68377;SDS011;55322;48.146;11.516;2022-08-01T09:41:09;5.03;;;1.70;;
68377;SDS011;55322;48.146;11.516;2022-08-01T09:43:36;5.10;;;1.57;;
68377;SDS011;55322;48.146;11.516;2022-08-01T09:46:09;4.80;;;1.65;;
68377;SDS011;55322;48.146;11.516;2022-08-01T09:48:38;7.50;;;2.00;;
68377;SDS011;55322;48.146;11.516;2022-08-01T09:51:06;5.72;;;1.90;;
68377;SDS011;55322;48.146;11.516;2022-08-01T09:53:46;6.27;;;2.13;;
68377;SDS011;55322;48.146;11.516;2022-08-01T09:56:12;5.95;;;1.90;;
68377;SDS011;55322;48.146;11.516;2022-08-01T09:58:59;5.25;;;2.00;;
68377;SDS011;55322;48.146;11.516;2022-08-01T10:01:24;5.32;;;2.10;;
68377;SDS011;55322;48.146;11.516;2022-08-01T10:04:03;4.90;;;1.70;;
68377;SDS011;55322;48.146;11.516;2022-08-01T10:06:33;4.93;;;1.73;;
68377;SDS011;55322;48.146;11.516;2022-08-01T10:08:58;5.90;;;1.70;;
68377;SDS011;55322;48.146;11.516;2022-08-01T10:11:24;8.02;;;1.60;;
68377;SDS011;55322;48.146;11.516;2022-08-01T10:13:50;6.07;;;2.10;;
68377;SDS011;55322;48.146;11.516;2022-08-01T10:16:15;4.93;;;1.80;;
68377;SDS011;55322;48.146;11.516;2022-08-01T10:18:41;5.75;;;2.00;;
68377;SDS011;55322;48.146;11.516;2022-08-01T10:21:07;5.50;;;2.00;;
68377;SDS011;55322;48.146;11.516;2022-08-01T10:23:34;5.00;;;1.70;;
68377;SDS011;55322;48.146;11.516;2022-08-01T10:26:00;5.80;;;1.92;;
68377;SDS011;55322;48.146;11.516;2022-08-01T10:28:26;5.87;;;1.90;;
68377;SDS011;55322;48.146;11.516;2022-08-01T10:30:56;6.05;;;1.70;;
68377;SDS011;55322;48.146;11.516;2022-08-01T10:33:22;5.47;;;1.70;;
68377;SDS011;55322;48.146;11.516;2022-08-01T10:35:49;4.95;;;1.95;;
68377;SDS011;55322;48.146;11.516;2022-08-01T10:38:15;6.65;;;1.73;;
68377;SDS011;55322;48.146;11.516;2022-08-01T10:40:42;13.60;;;2.00;;
68377;SDS011;55322;48.146;11.516;2022-08-01T10:43:09;6.20;;;1.70;;
68377;SDS011;55322;48.146;11.516;2022-08-01T10:45:35;6.20;;;1.58;;
68377;SDS011;55322;48.146;11.516;2022-08-01T10:48:14;4.83;;;1.53;;
68377;SDS011;55322;48.146;11.516;2022-08-01T10:50:44;5.07;;;1.80;;
68377;SDS011;55322;48.146;11.516;2022-08-01T10:55:46;4.70;;;1.70;;
68377;SDS011;55322;48.146;11.516;2022-08-01T10:58:13;6.03;;;1.75;;
68377;SDS011;55322;48.146;11.516;2022-08-01T11:00:38;4.43;;;1.60;;
68377;SDS011;55322;48.146;11.516;2022-08-01T11:03:04;5.37;;;1.70;;
68377;SDS011;55322;48.146;11.516;2022-08-01T11:05:33;5.05;;;1.70;;
68377;SDS011;55322;48.146;11.516;2022-08-01T11:08:03;7.55;;;1.70;;
68377;SDS011;55322;48.146;11.516;2022-08-01T11:10:38;5.63;;;1.80;;
68377;SDS011;55322;48.146;11.516;2022-08-01T11:13:06;5.13;;;1.60;;
68377;SDS011;55322;48.146;11.516;2022-08-01T11:15:36;4.90;;;1.60;;
68377;SDS011;55322;48.146;11.516;2022-08-01T11:18:03;4.82;;;1.70;;
68377;SDS011;55322;48.146;11.516;2022-08-01T11:20:55;5.47;;;1.90;;
68377;SDS011;55322;48.146;11.516;2022-08-01T11:23:23;5.88;;;1.58;;
68377;SDS011;55322;48.146;11.516;2022-08-01T11:30:46;4.67;;;1.80;;
68377;SDS011;55322;48.146;11.516;2022-08-01T11:33:13;5.65;;;1.80;;
68377;SDS011;55322;48.146;11.516;2022-08-01T11:38:40;4.40;;;1.50;;
68377;SDS011;55322;48.146;11.516;2022-08-01T11:41:20;6.50;;;1.70;;
68377;SDS011;55322;48.146;11.516;2022-08-01T11:49:48;5.60;;;1.90;;
68377;SDS011;55322;48.146;11.516;2022-08-01T11:55:03;5.10;;;1.77;;
68377;SDS011;55322;48.146;11.516;2022-08-01T11:57:31;5.33;;;1.57;;
68377;SDS011;55322;48.146;11.516;2022-08-01T12:00:00;4.72;;;1.50;;
68377;SDS011;55322;48.146;11.516;2022-08-01T12:02:35;5.18;;;1.35;;
68377;SDS011;55322;48.146;11.516;2022-08-01T12:05:02;5.03;;;1.35;;
68377;SDS011;55322;48.146;11.516;2022-08-01T12:07:31;5.10;;;1.70;;
68377;SDS011;55322;48.146;11.516;2022-08-01T12:12:26;4.88;;;1.10;;
68377;SDS011;55322;48.146;11.516;2022-08-01T12:14:54;4.57;;;1.30;;
68377;SDS011;55322;48.146;11.516;2022-08-01T12:17:27;4.38;;;1.25;;
68377;SDS011;55322;48.146;11.516;2022-08-01T12:19:54;5.18;;;1.48;;
68377;SDS011;55322;48.146;11.516;2022-08-01T12:22:21;4.83;;;1.40;;
68377;SDS011;55322;48.146;11.516;2022-08-01T12:24:47;5.30;;;1.45;;
68377;SDS011;55322;48.146;11.516;2022-08-01T12:27:13;4.93;;;1.40;;
68377;SDS011;55322;48.146;11.516;2022-08-01T12:29:49;4.28;;;1.10;;
68377;SDS011;55322;48.146;11.516;2022-08-01T12:32:20;5.17;;;1.00;;
68377;SDS011;55322;48.146;11.516;2022-08-01T12:34:47;4.38;;;1.40;;
68377;SDS011;55322;48.146;11.516;2022-08-01T12:37:13;4.40;;;1.20;;
68377;SDS011;55322;48.146;11.516;2022-08-01T12:39:39;4.77;;;1.43;;
68377;SDS011;55322;48.146;11.516;2022-08-01T12:42:06;5.68;;;1.70;;
68377;SDS011;55322;48.146;11.516;2022-08-01T12:44:35;4.93;;;1.40;;
68377;SDS011;55322;48.146;11.516;2022-08-01T12:47:02;5.72;;;1.20;;
68377;SDS011;55322;48.146;11.516;2022-08-01T12:49:31;5.25;;;1.10;;
68377;SDS011;55322;48.146;11.516;2022-08-01T12:51:57;4.03;;;1.10;;
68377;SDS011;55322;48.146;11.516;2022-08-01T12:54:23;6.60;;;1.10;;
68377;SDS011;55322;48.146;11.516;2022-08-01T12:56:50;7.80;;;1.25;;
68377;SDS011;55322;48.146;11.516;2022-08-01T12:59:21;5.03;;;1.20;;
68377;SDS011;55322;48.146;11.516;2022-08-01T13:01:50;5.38;;;1.20;;
68377;SDS011;55322;48.146;11.516;2022-08-01T13:04:20;5.68;;;1.10;;
68377;SDS011;55322;48.146;11.516;2022-08-01T13:06:46;5.23;;;1.30;;
68377;SDS011;55322;48.146;11.516;2022-08-01T13:09:12;5.20;;;1.02;;
68377;SDS011;55322;48.146;11.516;2022-08-01T13:11:41;6.43;;;1.20;;
68377;SDS011;55322;48.146;11.516;2022-08-01T13:14:06;4.57;;;1.10;;
68377;SDS011;55322;48.146;11.516;2022-08-01T13:16:32;4.28;;;1.10;;
68377;SDS011;55322;48.146;11.516;2022-08-01T13:19:11;5.05;;;1.33;;
68377;SDS011;55322;48.146;11.516;2022-08-01T13:21:36;5.43;;;1.30;;
68377;SDS011;55322;48.146;11.516;2022-08-01T13:24:03;5.67;;;1.13;;
68377;SDS011;55322;48.146;11.516;2022-08-01T13:31:58;5.40;;;1.10;;
68377;SDS011;55322;48.146;11.516;2022-08-01T13:34:30;4.60;;;1.30;;
68377;SDS011;55322;48.146;11.516;2022-08-01T13:36:57;6.85;;;1.30;;
68377;SDS011;55322;48.146;11.516;2022-08-01T13:39:22;4.30;;;1.20;;
68377;SDS011;55322;48.146;11.516;2022-08-01T13:42:09;4.13;;;0.95;;
68377;SDS011;55322;48.146;11.516;2022-08-01T13:44:39;4.93;;;1.00;;
68377;SDS011;55322;48.146;11.516;2022-08-01T13:47:05;6.30;;;0.97;;
68377;SDS011;55322;48.146;11.516;2022-08-01T13:49:31;5.18;;;1.05;;
68377;SDS011;55322;48.146;11.516;2022-08-01T13:51:57;5.18;;;0.93;;
68377;SDS011;55322;48.146;11.516;2022-08-01T13:54:23;4.23;;;1.00;;
68377;SDS011;55322;48.146;11.516;2022-08-01T13:56:49;4.65;;;1.08;;
68377;SDS011;55322;48.146;11.516;2022-08-01T13:59:15;3.92;;;0.90;;
68377;SDS011;55322;48.146;11.516;2022-08-01T14:01:41;4.37;;;1.00;;
68377;SDS011;55322;48.146;11.516;2022-08-01T14:04:06;4.50;;;0.93;;
68377;SDS011;55322;48.146;11.516;2022-08-01T14:06:32;4.10;;;1.00;;
68377;SDS011;55322;48.146;11.516;2022-08-01T14:08:58;7.27;;;1.17;;
68377;SDS011;55322;48.146;11.516;2022-08-01T14:11:23;4.20;;;1.00;;
68377;SDS011;55322;48.146;11.516;2022-08-01T14:13:48;4.00;;;0.90;;
68377;SDS011;55322;48.146;11.516;2022-08-01T14:16:14;5.30;;;0.87;;
68377;SDS011;55322;48.146;11.516;2022-08-01T14:18:39;4.20;;;1.00;;
68377;SDS011;55322;48.146;11.516;2022-08-01T14:21:05;5.05;;;1.20;;
68377;SDS011;55322;48.146;11.516;2022-08-01T14:23:31;4.13;;;1.10;;
68377;SDS011;55322;48.146;11.516;2022-08-01T14:25:56;4.73;;;1.13;;
68377;SDS011;55322;48.146;11.516;2022-08-01T14:28:22;4.97;;;1.20;;
68377;SDS011;55322;48.146;11.516;2022-08-01T14:30:48;4.50;;;1.30;;
68377;SDS011;55322;48.146;11.516;2022-08-01T14:33:13;6.00;;;1.20;;
68377;SDS011;55322;48.146;11.516;2022-08-01T14:35:39;6.07;;;1.63;;
68377;SDS011;55322;48.146;11.516;2022-08-01T14:38:05;4.77;;;1.33;;
68377;SDS011;55322;48.146;11.516;2022-08-01T14:40:32;6.45;;;1.60;;
68377;SDS011;55322;48.146;11.516;2022-08-01T14:42:58;5.45;;;1.40;;
68377;SDS011;55322;48.146;11.516;2022-08-01T14:45:26;5.38;;;1.60;;
68377;SDS011;55322;48.146;11.516;2022-08-01T14:47:51;5.13;;;1.60;;
68377;SDS011;55322;48.146;11.516;2022-08-01T14:50:17;4.50;;;1.33;;
68377;SDS011;55322;48.146;11.516;2022-08-01T14:52:42;5.03;;;1.70;;
68377;SDS011;55322;48.146;11.516;2022-08-01T14:55:09;5.50;;;1.20;;
68377;SDS011;55322;48.146;11.516;2022-08-01T14:57:35;5.65;;;1.40;;
68377;SDS011;55322;48.146;11.516;2022-08-01T15:00:03;5.28;;;1.73;;
68377;SDS011;55322;48.146;11.516;2022-08-01T15:02:29;8.00;;;1.70;;
68377;SDS011;55322;48.146;11.516;2022-08-01T15:04:55;5.20;;;1.50;;